sensor_id;sensor_type;location;lat;lon;timestamp;pressure;altitude;pressure_sealevel;temperature;humidity
66857;BME280;53766;50.280;19.160;2023-11-22T00:02:20;98667.53;;;14.84;59.86
66857;BME280;53766;50.280;19.160;2023-11-22T00:04:48;98667.53;;;14.84;59.97
66857;BME280;53766;50.280;19.160;2023-11-22T00:07:15;98673.81;;;14.82;59.88
66857;BME280;53766;50.280;19.160;2023-11-22T00:09:43;98684.25;;;14.84;59.71
66857;BME280;53766;50.280;19.160;2023-11-22T00:12:10;98686.09;;;14.84;59.83
66857;BME280;53766;50.280;19.160;2023-11-22T00:14:37;98688.75;;;14.84;59.88
66857;BME280;53766;50.280;19.160;2023-11-22T00:17:05;98695.88;;;14.83;59.66
66857;BME280;53766;50.280;19.160;2023-11-22T00:19:32;98697.69;;;14.82;59.64
66857;BME280;53766;50.280;19.160;2023-11-22T00:21:59;98698.69;;;14.81;59.70
66857;BME280;53766;50.280;19.160;2023-11-22T00:24:27;98711.94;;;14.81;59.99
66857;BME280;53766;50.280;19.160;2023-11-22T00:26:54;98715.59;;;14.80;59.85
66857;BME280;53766;50.280;19.160;2023-11-22T00:29:21;98712.13;;;14.80;59.83
66857;BME280;53766;50.280;19.160;2023-11-22T00:31:49;98715.59;;;14.80;59.89
66857;BME280;53766;50.280;19.160;2023-11-22T00:34:16;98713.94;;;14.79;59.83
66857;BME280;53766;50.280;19.160;2023-11-22T00:36:47;98722.88;;;14.78;59.90
66857;BME280;53766;50.280;19.160;2023-11-22T00:39:16;98719.25;;;14.79;59.81
66857;BME280;53766;50.280;19.160;2023-11-22T00:41:44;98714.94;;;14.78;59.71
66857;BME280;53766;50.280;19.160;2023-11-22T00:44:11;98721.25;;;14.77;59.75
66857;BME280;53766;50.280;19.160;2023-11-22T00:46:38;98720.44;;;14.77;59.84
66857;BME280;53766;50.280;19.160;2023-11-22T00:49:05;98721.25;;;14.77;59.75
66857;BME280;53766;50.280;19.160;2023-11-22T00:51:33;98719.63;;;14.76;59.72
66857;BME280;53766;50.280;19.160;2023-11-22T00:54:00;98723.25;;;14.75;59.74
66857;BME280;53766;50.280;19.160;2023-11-22T00:56:27;98721.59;;;14.74;59.59
66857;BME280;53766;50.280;19.160;2023-11-22T00:58:54;98725.91;;;14.75;59.71
66857;BME280;53766;50.280;19.160;2023-11-22T01:01:22;98726.91;;;14.74;59.60
66857;BME280;53766;50.280;19.160;2023-11-22T01:03:50;98732.38;;;14.73;59.82
66857;BME280;53766;50.280;19.160;2023-11-22T01:06:17;98735.84;;;14.73;59.71
66857;BME280;53766;50.280;19.160;2023-11-22T01:08:47;98730.53;;;14.73;59.67
66857;BME280;53766;50.280;19.160;2023-11-22T01:11:15;98729.72;;;14.73;59.30
66857;BME280;53766;50.280;19.160;2023-11-22T01:13:43;98731.56;;;14.72;59.59
66857;BME280;53766;50.280;19.160;2023-11-22T01:16:10;98739.50;;;14.72;59.61
66857;BME280;53766;50.280;19.160;2023-11-22T01:18:37;98732.53;;;14.71;59.76
66857;BME280;53766;50.280;19.160;2023-11-22T01:21:06;98730.72;;;14.72;59.38
66857;BME280;53766;50.280;19.160;2023-11-22T01:23:34;98738.66;;;14.72;59.73
66857;BME280;53766;50.280;19.160;2023-11-22T01:26:02;98743.16;;;14.71;59.47
66857;BME280;53766;50.280;19.160;2023-11-22T01:28:30;98735.34;;;14.70;59.36
66857;BME280;53766;50.280;19.160;2023-11-22T01:31:01;98745.13;;;14.69;59.73
66857;BME280;53766;50.280;19.160;2023-11-22T01:33:31;98745.13;;;14.69;59.44
66857;BME280;53766;50.280;19.160;2023-11-22T01:35:59;98751.25;;;14.70;59.46
66857;BME280;53766;50.280;19.160;2023-11-22T01:38:26;98750.44;;;14.69;59.72
66857;BME280;53766;50.280;19.160;2023-11-22T01:40:54;98754.09;;;14.68;59.45
66857;BME280;53766;50.280;19.160;2023-11-22T01:43:21;98754.09;;;14.68;59.38
66857;BME280;53766;50.280;19.160;2023-11-22T01:45:51;98755.09;;;14.67;59.29
66857;BME280;53766;50.280;19.160;2023-11-22T01:48:19;98758.75;;;14.66;59.31
66857;BME280;53766;50.280;19.160;2023-11-22T01:50:46;98763.03;;;14.67;59.47
66857;BME280;53766;50.280;19.160;2023-11-22T01:53:14;98756.09;;;14.66;59.17
66857;BME280;53766;50.280;19.160;2023-11-22T01:55:43;98761.41;;;14.66;59.46
66857;BME280;53766;50.280;19.160;2023-11-22T01:58:11;98770.34;;;14.65;59.42
66857;BME280;53766;50.280;19.160;2023-11-22T02:00:45;98764.22;;;14.65;59.41
66857;BME280;53766;50.280;19.160;2023-11-22T02:03:16;98765.03;;;14.65;59.15
66857;BME280;53766;50.280;19.160;2023-11-22T02:05:44;98768.53;;;14.66;59.08
66857;BME280;53766;50.280;19.160;2023-11-22T02:08:12;98770.34;;;14.65;59.35
66857;BME280;53766;50.280;19.160;2023-11-22T02:10:40;98775.63;;;14.65;59.14
66857;BME280;53766;50.280;19.160;2023-11-22T02:13:08;98773.00;;;14.65;59.34
66857;BME280;53766;50.280;19.160;2023-11-22T02:15:36;98769.53;;;14.65;59.18
66857;BME280;53766;50.280;19.160;2023-11-22T02:18:03;98778.47;;;14.64;59.12
66857;BME280;53766;50.280;19.160;2023-11-22T02:20:39;98782.94;;;14.63;59.01
66857;BME280;53766;50.280;19.160;2023-11-22T02:23:09;98783.78;;;14.64;59.34
66857;BME280;53766;50.280;19.160;2023-11-22T02:25:37;98788.22;;;14.63;59.02
66857;BME280;53766;50.280;19.160;2023-11-22T02:28:04;98781.28;;;14.62;59.11
66857;BME280;53766;50.280;19.160;2023-11-22T02:30:32;98794.56;;;14.62;59.25
66857;BME280;53766;50.280;19.160;2023-11-22T02:32:59;98791.09;;;14.62;59.29
66857;BME280;53766;50.280;19.160;2023-11-22T02:35:26;98798.19;;;14.61;59.20
66857;BME280;53766;50.280;19.160;2023-11-22T02:37:54;98800.84;;;14.61;58.89
66857;BME280;53766;50.280;19.160;2023-11-22T02:40:22;98809.78;;;14.60;59.10
66857;BME280;53766;50.280;19.160;2023-11-22T02:42:49;98807.16;;;14.60;59.21
66857;BME280;53766;50.280;19.160;2023-11-22T02:45:17;98809.78;;;14.60;59.02
66857;BME280;53766;50.280;19.160;2023-11-22T02:47:45;98807.16;;;14.60;59.15
66857;BME280;53766;50.280;19.160;2023-11-22T02:50:13;98808.16;;;14.59;59.18
66857;BME280;53766;50.280;19.160;2023-11-22T02:52:41;98824.06;;;14.59;58.93
66857;BME280;53766;50.280;19.160;2023-11-22T02:55:09;98827.69;;;14.58;58.93
66857;BME280;53766;50.280;19.160;2023-11-22T02:57:39;98832.19;;;14.57;58.76
66857;BME280;53766;50.280;19.160;2023-11-22T03:00:09;98824.38;;;14.56;59.01
66857;BME280;53766;50.280;19.160;2023-11-22T03:02:42;98828.69;;;14.57;58.84
66857;BME280;53766;50.280;19.160;2023-11-22T03:05:10;98832.34;;;14.56;59.01
66857;BME280;53766;50.280;19.160;2023-11-22T03:07:38;98839.47;;;14.55;58.67
66857;BME280;53766;50.280;19.160;2023-11-22T03:10:05;98841.09;;;14.56;58.69
66857;BME280;53766;50.280;19.160;2023-11-22T03:12:34;98841.09;;;14.56;58.94
66857;BME280;53766;50.280;19.160;2023-11-22T03:15:02;98850.88;;;14.56;58.71
66857;BME280;53766;50.280;19.160;2023-11-22T03:17:29;98855.38;;;14.55;58.77
66857;BME280;53766;50.280;19.160;2023-11-22T03:19:57;98859.84;;;14.55;58.71
66857;BME280;53766;50.280;19.160;2023-11-22T03:22:25;98866.09;;;14.54;58.96
66857;BME280;53766;50.280;19.160;2023-11-22T03:24:52;98870.44;;;14.55;58.85
66857;BME280;53766;50.280;19.160;2023-11-22T03:27:22;98873.22;;;14.53;58.82
66857;BME280;53766;50.280;19.160;2023-11-22T03:29:50;98888.13;;;14.54;58.89
66857;BME280;53766;50.280;19.160;2023-11-22T03:32:17;98890.97;;;14.53;58.43
66857;BME280;53766;50.280;19.160;2023-11-22T03:34:45;98896.97;;;14.55;58.81
66857;BME280;53766;50.280;19.160;2023-11-22T03:37:12;98900.56;;;14.54;58.71
66857;BME280;53766;50.280;19.160;2023-11-22T03:39:40;98906.88;;;14.53;58.55
66857;BME280;53766;50.280;19.160;2023-11-22T03:42:15;98904.22;;;14.53;58.66
66857;BME280;53766;50.280;19.160;2023-11-22T03:44:45;98909.50;;;14.53;58.60
66857;BME280;53766;50.280;19.160;2023-11-22T03:47:14;98919.25;;;14.52;58.42
66857;BME280;53766;50.280;19.160;2023-11-22T03:49:41;98908.66;;;14.52;58.43
66857;BME280;53766;50.280;19.160;2023-11-22T03:52:10;98922.94;;;14.51;58.56
66857;BME280;53766;50.280;19.160;2023-11-22T03:54:38;98928.22;;;14.51;58.79
66857;BME280;53766;50.280;19.160;2023-11-22T03:57:06;98940.66;;;14.51;58.41
66857;BME280;53766;50.280;19.160;2023-11-22T03:59:34;98936.19;;;14.51;58.50
66857;BME280;53766;50.280;19.160;2023-11-22T04:02:01;98943.31;;;14.51;58.62
66857;BME280;53766;50.280;19.160;2023-11-22T04:04:29;98953.09;;;14.50;58.40
66857;BME280;53766;50.280;19.160;2023-11-22T04:06:57;98954.88;;;14.50;58.42
66857;BME280;53766;50.280;19.160;2023-11-22T04:09:24;98962.84;;;14.50;58.30
66857;BME280;53766;50.280;19.160;2023-11-22T04:11:51;98961.88;;;14.51;58.44
66857;BME280;53766;50.280;19.160;2023-11-22T04:14:19;98971.81;;;14.49;58.31
66857;BME280;53766;50.280;19.160;2023-11-22T04:16:49;98974.28;;;14.50;58.37
66857;BME280;53766;50.280;19.160;2023-11-22T04:19:17;98976.28;;;14.48;58.30
66857;BME280;53766;50.280;19.160;2023-11-22T04:21:45;98980.72;;;14.48;58.43
66857;BME280;53766;50.280;19.160;2023-11-22T04:24:12;98989.69;;;14.47;58.28
66857;BME280;53766;50.280;19.160;2023-11-22T04:26:39;98995.00;;;14.47;58.20
66857;BME280;53766;50.280;19.160;2023-11-22T04:29:07;98995.00;;;14.47;58.27
66857;BME280;53766;50.280;19.160;2023-11-22T04:31:34;99003.91;;;14.46;58.44
66857;BME280;53766;50.280;19.160;2023-11-22T04:34:01;99002.28;;;14.45;58.32
66857;BME280;53766;50.280;19.160;2023-11-22T04:36:29;99009.22;;;14.46;58.51
66857;BME280;53766;50.280;19.160;2023-11-22T04:38:56;99014.50;;;14.46;58.23
66857;BME280;53766;50.280;19.160;2023-11-22T04:41:24;99020.81;;;14.45;58.21
66857;BME280;53766;50.280;19.160;2023-11-22T04:43:52;99027.94;;;14.44;58.08
66857;BME280;53766;50.280;19.160;2023-11-22T04:46:20;99034.06;;;14.45;58.49
66857;BME280;53766;50.280;19.160;2023-11-22T04:48:47;99036.72;;;14.45;57.93
66857;BME280;53766;50.280;19.160;2023-11-22T04:51:18;99039.38;;;14.45;58.41
66857;BME280;53766;50.280;19.160;2023-11-22T04:53:45;99033.41;;;14.43;58.30
66857;BME280;53766;50.280;19.160;2023-11-22T04:56:12;99038.72;;;14.43;58.09
66857;BME280;53766;50.280;19.160;2023-11-22T04:58:40;99045.00;;;14.42;58.19
66857;BME280;53766;50.280;19.160;2023-11-22T05:01:07;99045.84;;;14.42;58.04
66857;BME280;53766;50.280;19.160;2023-11-22T05:03:37;99045.84;;;14.42;57.90
66857;BME280;53766;50.280;19.160;2023-11-22T05:06:05;99061.75;;;14.42;57.94
66857;BME280;53766;50.280;19.160;2023-11-22T05:08:32;99061.75;;;14.42;58.08
66857;BME280;53766;50.280;19.160;2023-11-22T05:11:01;99066.22;;;14.42;57.95
66857;BME280;53766;50.280;19.160;2023-11-22T05:13:30;99074.16;;;14.42;57.91
66857;BME280;53766;50.280;19.160;2023-11-22T05:15:57;99082.94;;;14.42;57.64
66857;BME280;53766;50.280;19.160;2023-11-22T05:18:25;99079.28;;;14.43;58.04
66857;BME280;53766;50.280;19.160;2023-11-22T05:20:52;99083.75;;;14.43;58.04
66857;BME280;53766;50.280;19.160;2023-11-22T05:23:19;99081.13;;;14.43;57.72
66857;BME280;53766;50.280;19.160;2023-11-22T05:25:46;99083.75;;;14.43;57.80
66857;BME280;53766;50.280;19.160;2023-11-22T05:28:14;99087.41;;;14.42;57.98
66857;BME280;53766;50.280;19.160;2023-11-22T05:30:41;99088.25;;;14.42;57.72
66857;BME280;53766;50.280;19.160;2023-11-22T05:33:08;99089.06;;;14.43;57.82
66857;BME280;53766;50.280;19.160;2023-11-22T05:35:35;99089.06;;;14.43;57.49
66857;BME280;53766;50.280;19.160;2023-11-22T05:38:03;99091.03;;;14.40;57.67
66857;BME280;53766;50.280;19.160;2023-11-22T05:40:30;99085.75;;;14.40;57.89
66857;BME280;53766;50.280;19.160;2023-11-22T05:42:58;99089.22;;;14.41;57.62
66857;BME280;53766;50.280;19.160;2023-11-22T05:45:25;99101.63;;;14.40;57.45
66857;BME280;53766;50.280;19.160;2023-11-22T05:47:52;99097.16;;;14.41;57.58
66857;BME280;53766;50.280;19.160;2023-11-22T05:50:19;99106.94;;;14.40;57.92
66857;BME280;53766;50.280;19.160;2023-11-22T05:52:47;99113.06;;;14.41;57.84
66857;BME280;53766;50.280;19.160;2023-11-22T05:55:14;99115.56;;;14.43;57.70
66857;BME280;53766;50.280;19.160;2023-11-22T05:57:42;99119.22;;;14.42;58.01
66857;BME280;53766;50.280;19.160;2023-11-22T06:00:11;99117.41;;;14.42;57.79
66857;BME280;53766;50.280;19.160;2023-11-22T06:02:39;99123.66;;;14.41;58.11
66857;BME280;53766;50.280;19.160;2023-11-22T06:05:07;99116.56;;;14.42;57.91
66857;BME280;53766;50.280;19.160;2023-11-22T06:07:34;99124.53;;;14.42;57.82
66857;BME280;53766;50.280;19.160;2023-11-22T06:10:01;99128.16;;;14.40;58.02
66857;BME280;53766;50.280;19.160;2023-11-22T06:12:30;99139.56;;;14.41;57.86
66857;BME280;53766;50.280;19.160;2023-11-22T06:14:57;99139.56;;;14.41;57.82
66857;BME280;53766;50.280;19.160;2023-11-22T06:17:25;99147.50;;;14.41;57.88
66857;BME280;53766;50.280;19.160;2023-11-22T06:19:52;99141.53;;;14.39;58.26
66857;BME280;53766;50.280;19.160;2023-11-22T06:22:20;99150.34;;;14.39;58.19
66857;BME280;53766;50.280;19.160;2023-11-22T06:24:48;99153.00;;;14.39;57.89
66857;BME280;53766;50.280;19.160;2023-11-22T06:27:16;99163.59;;;14.39;58.14
66857;BME280;53766;50.280;19.160;2023-11-22T06:29:43;99168.91;;;14.39;58.18
66857;BME280;53766;50.280;19.160;2023-11-22T06:32:11;99172.38;;;14.40;58.04
66857;BME280;53766;50.280;19.160;2023-11-22T06:34:38;99170.69;;;14.39;58.00
66857;BME280;53766;50.280;19.160;2023-11-22T06:37:07;99168.03;;;14.39;58.15
66857;BME280;53766;50.280;19.160;2023-11-22T06:39:35;99174.19;;;14.39;57.87
66857;BME280;53766;50.280;19.160;2023-11-22T06:42:03;99180.31;;;14.40;57.77
66857;BME280;53766;50.280;19.160;2023-11-22T06:44:30;99180.47;;;14.38;57.90
66857;BME280;53766;50.280;19.160;2023-11-22T06:46:58;99182.31;;;14.38;57.77
66857;BME280;53766;50.280;19.160;2023-11-22T06:49:25;99182.31;;;14.38;57.84
66857;BME280;53766;50.280;19.160;2023-11-22T06:51:52;99187.59;;;14.38;57.83
66857;BME280;53766;50.280;19.160;2023-11-22T06:54:20;99195.56;;;14.38;58.10
66857;BME280;53766;50.280;19.160;2023-11-22T06:56:47;99194.72;;;14.37;57.67
66857;BME280;53766;50.280;19.160;2023-11-22T06:59:15;99193.06;;;14.36;58.11
66857;BME280;53766;50.280;19.160;2023-11-22T07:01:42;99198.19;;;14.38;57.72
66857;BME280;53766;50.280;19.160;2023-11-22T07:04:10;99198.34;;;14.36;57.87
66857;BME280;53766;50.280;19.160;2023-11-22T07:06:38;99193.06;;;14.36;57.87
66857;BME280;53766;50.280;19.160;2023-11-22T07:09:06;99201.00;;;14.36;57.61
66857;BME280;53766;50.280;19.160;2023-11-22T07:11:36;99201.81;;;14.37;57.93
66857;BME280;53766;50.280;19.160;2023-11-22T07:14:04;99206.31;;;14.36;57.64
66857;BME280;53766;50.280;19.160;2023-11-22T07:16:32;99207.97;;;14.37;57.54
66857;BME280;53766;50.280;19.160;2023-11-22T07:19:00;99215.25;;;14.35;57.98
66857;BME280;53766;50.280;19.160;2023-11-22T07:21:31;99223.22;;;14.35;57.92
66857;BME280;53766;50.280;19.160;2023-11-22T07:23:58;99224.19;;;14.34;57.98
66857;BME280;53766;50.280;19.160;2023-11-22T07:26:28;99232.94;;;14.35;57.94
66857;BME280;53766;50.280;19.160;2023-11-22T07:28:55;99241.75;;;14.35;57.59
66857;BME280;53766;50.280;19.160;2023-11-22T07:31:23;99252.34;;;14.35;57.53
66857;BME280;53766;50.280;19.160;2023-11-22T07:33:50;99245.38;;;14.34;57.63
66857;BME280;53766;50.280;19.160;2023-11-22T07:36:19;99238.44;;;14.33;57.58
66857;BME280;53766;50.280;19.160;2023-11-22T07:38:47;99247.22;;;14.34;57.34
66857;BME280;53766;50.280;19.160;2023-11-22T07:41:15;99255.16;;;14.34;57.35
66857;BME280;53766;50.280;19.160;2023-11-22T07:43:42;99255.16;;;14.34;57.81
66857;BME280;53766;50.280;19.160;2023-11-22T07:46:11;99254.31;;;14.33;57.51
66857;BME280;53766;50.280;19.160;2023-11-22T07:48:42;99263.25;;;14.32;57.52
66857;BME280;53766;50.280;19.160;2023-11-22T07:51:09;99269.41;;;14.33;57.38
66857;BME280;53766;50.280;19.160;2023-11-22T07:53:36;99273.84;;;14.32;57.69
66857;BME280;53766;50.280;19.160;2023-11-22T07:56:05;99267.72;;;14.32;57.61
66857;BME280;53766;50.280;19.160;2023-11-22T07:58:32;99259.78;;;14.32;57.35
66857;BME280;53766;50.280;19.160;2023-11-22T08:01:00;99266.91;;;14.31;57.33
66857;BME280;53766;50.280;19.160;2023-11-22T08:03:30;99262.44;;;14.32;57.42
66857;BME280;53766;50.280;19.160;2023-11-22T08:05:58;99261.59;;;14.31;57.32
66857;BME280;53766;50.280;19.160;2023-11-22T08:08:26;99256.31;;;14.31;57.41
66857;BME280;53766;50.280;19.160;2023-11-22T08:10:54;99262.56;;;14.30;57.33
66857;BME280;53766;50.280;19.160;2023-11-22T08:13:23;99266.91;;;14.31;57.47
66857;BME280;53766;50.280;19.160;2023-11-22T08:15:51;99277.50;;;14.31;57.15
66857;BME280;53766;50.280;19.160;2023-11-22T08:18:18;99283.78;;;14.30;57.43
66857;BME280;53766;50.280;19.160;2023-11-22T08:20:46;99290.91;;;14.30;57.21
66857;BME280;53766;50.280;19.160;2023-11-22T08:23:14;99295.38;;;14.29;57.29
66857;BME280;53766;50.280;19.160;2023-11-22T08:25:42;99292.72;;;14.29;57.17
66857;BME280;53766;50.280;19.160;2023-11-22T08:28:12;99284.78;;;14.29;57.18
66857;BME280;53766;50.280;19.160;2023-11-22T08:30:40;99299.00;;;14.28;57.31
66857;BME280;53766;50.280;19.160;2023-11-22T08:33:08;99294.56;;;14.29;57.12
66857;BME280;53766;50.280;19.160;2023-11-22T08:35:36;99305.97;;;14.29;57.23
66857;BME280;53766;50.280;19.160;2023-11-22T08:38:03;99299.00;;;14.28;57.12
66857;BME280;53766;50.280;19.160;2023-11-22T08:40:32;99305.16;;;14.29;57.20
66857;BME280;53766;50.280;19.160;2023-11-22T08:42:59;99314.91;;;14.28;56.93
66857;BME280;53766;50.280;19.160;2023-11-22T08:45:26;99318.53;;;14.27;57.02
66857;BME280;53766;50.280;19.160;2023-11-22T08:47:56;99313.25;;;14.27;56.97
66857;BME280;53766;50.280;19.160;2023-11-22T08:50:23;99307.28;;;14.25;57.20
66857;BME280;53766;50.280;19.160;2023-11-22T08:52:51;99314.41;;;14.25;57.36
66857;BME280;53766;50.280;19.160;2023-11-22T08:55:21;99309.91;;;14.25;57.06
66857;BME280;53766;50.280;19.160;2023-11-22T08:57:49;99308.28;;;14.24;56.93
66857;BME280;53766;50.280;19.160;2023-11-22T09:00:18;99316.22;;;14.24;57.04
66857;BME280;53766;50.280;19.160;2023-11-22T09:02:49;99329.47;;;14.24;57.31
66857;BME280;53766;50.280;19.160;2023-11-22T09:05:17;99330.28;;;14.25;56.82
66857;BME280;53766;50.280;19.160;2023-11-22T09:07:46;99319.84;;;14.23;57.26
66857;BME280;53766;50.280;19.160;2023-11-22T09:10:13;99318.00;;;14.24;56.96
66857;BME280;53766;50.280;19.160;2023-11-22T09:12:42;99308.28;;;14.24;56.98
66857;BME280;53766;50.280;19.160;2023-11-22T09:15:11;99316.22;;;14.24;57.05
66857;BME280;53766;50.280;19.160;2023-11-22T09:17:44;99317.19;;;14.23;56.94
66857;BME280;53766;50.280;19.160;2023-11-22T09:20:15;99331.25;;;14.24;56.99
66857;BME280;53766;50.280;19.160;2023-11-22T09:22:43;99340.06;;;14.24;56.96
66857;BME280;53766;50.280;19.160;2023-11-22T09:25:22;99334.09;;;14.22;56.76
66857;BME280;53766;50.280;19.160;2023-11-22T09:27:51;99327.78;;;14.23;56.99
66857;BME280;53766;50.280;19.160;2023-11-22T09:30:19;99326.97;;;14.23;56.89
66857;BME280;53766;50.280;19.160;2023-11-22T09:33:04;99327.78;;;14.23;57.04
66857;BME280;53766;50.280;19.160;2023-11-22T09:35:31;99320.84;;;14.22;57.11
66857;BME280;53766;50.280;19.160;2023-11-22T09:37:59;99325.13;;;14.23;56.96
66857;BME280;53766;50.280;19.160;2023-11-22T09:40:27;99321.66;;;14.23;56.63
66857;BME280;53766;50.280;19.160;2023-11-22T09:42:56;99322.50;;;14.23;56.60
66857;BME280;53766;50.280;19.160;2023-11-22T09:45:25;99331.44;;;14.22;56.80
66857;BME280;53766;50.280;19.160;2023-11-22T09:47:56;99345.50;;;14.23;56.55
66857;BME280;53766;50.280;19.160;2023-11-22T09:50:40;99352.63;;;14.22;56.60
66857;BME280;53766;50.280;19.160;2023-11-22T09:53:11;99353.47;;;14.23;56.52
66857;BME280;53766;50.280;19.160;2023-11-22T09:55:41;99351.78;;;14.22;56.69
66857;BME280;53766;50.280;19.160;2023-11-22T09:58:11;99369.50;;;14.21;56.60
66857;BME280;53766;50.280;19.160;2023-11-22T10:00:40;99373.84;;;14.22;56.76
66857;BME280;53766;50.280;19.160;2023-11-22T10:03:09;99366.03;;;14.20;56.67
66857;BME280;53766;50.280;19.160;2023-11-22T10:05:43;99372.16;;;14.21;56.78
66857;BME280;53766;50.280;19.160;2023-11-22T10:08:10;99381.09;;;14.20;56.73
66857;BME280;53766;50.280;19.160;2023-11-22T10:10:38;99371.47;;;14.19;56.81
66857;BME280;53766;50.280;19.160;2023-11-22T10:13:07;99374.13;;;14.19;56.45
66857;BME280;53766;50.280;19.160;2023-11-22T10:15:34;99380.41;;;14.18;56.67
66857;BME280;53766;50.280;19.160;2023-11-22T10:18:01;99370.50;;;14.20;56.30
66857;BME280;53766;50.280;19.160;2023-11-22T10:23:02;99361.69;;;14.19;56.56
66857;BME280;53766;50.280;19.160;2023-11-22T10:25:30;99361.00;;;14.17;56.64
66857;BME280;53766;50.280;19.160;2023-11-22T10:27:59;99361.88;;;14.18;56.34
66857;BME280;53766;50.280;19.160;2023-11-22T10:30:28;99367.16;;;14.18;56.25
66857;BME280;53766;50.280;19.160;2023-11-22T10:32:57;99359.22;;;14.18;56.48
66857;BME280;53766;50.280;19.160;2023-11-22T10:35:25;99360.19;;;14.17;56.40
66857;BME280;53766;50.280;19.160;2023-11-22T10:37:52;99349.59;;;14.17;56.34
66857;BME280;53766;50.280;19.160;2023-11-22T10:40:20;99344.28;;;14.17;56.25
66857;BME280;53766;50.280;19.160;2023-11-22T10:42:47;99345.97;;;14.18;56.66
66857;BME280;53766;50.280;19.160;2023-11-22T10:45:19;99339.00;;;14.17;56.46
66857;BME280;53766;50.280;19.160;2023-11-22T10:47:46;99334.69;;;14.16;56.56
66857;BME280;53766;50.280;19.160;2023-11-22T10:50:16;99349.59;;;14.17;56.50
66857;BME280;53766;50.280;19.160;2023-11-22T10:52:44;99355.91;;;14.16;56.54
66857;BME280;53766;50.280;19.160;2023-11-22T10:55:12;99353.25;;;14.16;56.49
66857;BME280;53766;50.280;19.160;2023-11-22T10:57:46;99348.91;;;14.15;56.64
66857;BME280;53766;50.280;19.160;2023-11-22T11:00:21;99355.91;;;14.16;56.26
66857;BME280;53766;50.280;19.160;2023-11-22T11:02:51;99366.50;;;14.16;56.56
66857;BME280;53766;50.280;19.160;2023-11-22T11:05:24;99364.81;;;14.15;56.43
66857;BME280;53766;50.280;19.160;2023-11-22T11:08:13;99362.16;;;14.15;56.26
66857;BME280;53766;50.280;19.160;2023-11-22T11:10:44;99367.47;;;14.15;56.33
66857;BME280;53766;50.280;19.160;2023-11-22T11:13:12;99367.47;;;14.15;56.36
66857;BME280;53766;50.280;19.160;2023-11-22T11:15:41;99378.06;;;14.15;55.96
66857;BME280;53766;50.280;19.160;2023-11-22T11:18:10;99393.94;;;14.15;56.30
66857;BME280;53766;50.280;19.160;2023-11-22T11:20:49;99396.59;;;14.15;56.16
66857;BME280;53766;50.280;19.160;2023-11-22T11:23:19;99387.69;;;14.16;56.22
66857;BME280;53766;50.280;19.160;2023-11-22T11:25:47;99387.00;;;14.14;56.21
66857;BME280;53766;50.280;19.160;2023-11-22T11:28:15;99403.72;;;14.14;56.24
66857;BME280;53766;50.280;19.160;2023-11-22T11:30:44;99420.44;;;14.15;56.41
66857;BME280;53766;50.280;19.160;2023-11-22T11:33:12;99418.78;;;14.14;56.09
66857;BME280;53766;50.280;19.160;2023-11-22T11:35:49;99402.22;;;14.12;56.27
66857;BME280;53766;50.280;19.160;2023-11-22T11:38:20;99404.72;;;14.13;56.24
66857;BME280;53766;50.280;19.160;2023-11-22T11:40:48;99399.56;;;14.12;56.14
66857;BME280;53766;50.280;19.160;2023-11-22T11:43:20;99415.47;;;14.12;55.89
66857;BME280;53766;50.280;19.160;2023-11-22T11:45:48;99418.13;;;14.12;55.99
66857;BME280;53766;50.280;19.160;2023-11-22T11:48:17;99417.28;;;14.11;55.90
66857;BME280;53766;50.280;19.160;2023-11-22T11:50:46;99414.63;;;14.11;56.10
66857;BME280;53766;50.280;19.160;2023-11-22T11:53:13;99407.50;;;14.12;55.79
66857;BME280;53766;50.280;19.160;2023-11-22T11:55:45;99404.88;;;14.12;56.17
66857;BME280;53766;50.280;19.160;2023-11-22T11:58:13;99403.19;;;14.11;55.86
66857;BME280;53766;50.280;19.160;2023-11-22T12:00:44;99403.19;;;14.11;56.05
66857;BME280;53766;50.280;19.160;2023-11-22T12:03:11;99405.00;;;14.10;55.90
66857;BME280;53766;50.280;19.160;2023-11-22T12:05:39;99404.88;;;14.12;55.85
66857;BME280;53766;50.280;19.160;2023-11-22T12:08:07;99383.81;;;14.10;56.00
66857;BME280;53766;50.280;19.160;2023-11-22T12:10:35;99392.59;;;14.11;55.84
66857;BME280;53766;50.280;19.160;2023-11-22T12:13:03;99403.19;;;14.11;55.89
66857;BME280;53766;50.280;19.160;2023-11-22T12:15:31;99403.19;;;14.11;55.90
66857;BME280;53766;50.280;19.160;2023-11-22T12:17:58;99412.13;;;14.10;55.67
66857;BME280;53766;50.280;19.160;2023-11-22T12:20:27;99401.53;;;14.10;56.13
66857;BME280;53766;50.280;19.160;2023-11-22T12:22:58;99394.56;;;14.09;55.83
66857;BME280;53766;50.280;19.160;2023-11-22T12:25:28;99386.47;;;14.10;55.58
66857;BME280;53766;50.280;19.160;2023-11-22T12:27:55;99398.06;;;14.09;55.93
66857;BME280;53766;50.280;19.160;2023-11-22T12:30:29;99410.44;;;14.09;55.75
66857;BME280;53766;50.280;19.160;2023-11-22T12:33:00;99421.03;;;14.09;55.64
66857;BME280;53766;50.280;19.160;2023-11-22T12:35:27;99419.41;;;14.08;55.91
66857;BME280;53766;50.280;19.160;2023-11-22T12:37:54;99426.34;;;14.09;55.81
66857;BME280;53766;50.280;19.160;2023-11-22T12:40:22;99430.00;;;14.08;55.86
66857;BME280;53766;50.280;19.160;2023-11-22T12:42:50;99436.13;;;14.08;55.74
66857;BME280;53766;50.280;19.160;2023-11-22T12:45:21;99442.25;;;14.09;55.79
66857;BME280;53766;50.280;19.160;2023-11-22T12:47:51;99440.44;;;14.09;55.56
66857;BME280;53766;50.280;19.160;2023-11-22T12:50:28;99445.88;;;14.08;55.93
66857;BME280;53766;50.280;19.160;2023-11-22T12:52:57;99451.19;;;14.08;55.75
66857;BME280;53766;50.280;19.160;2023-11-22T12:55:25;99444.25;;;14.07;55.66
66857;BME280;53766;50.280;19.160;2023-11-22T12:57:56;99438.94;;;14.07;55.83
66857;BME280;53766;50.280;19.160;2023-11-22T13:00:23;99420.41;;;14.07;55.68